sensor_id;sensor_type;location;lat;lon;timestamp;P1;durP1;ratioP1;P2;durP2;ratioP2
10387;SDS011;5240;51.128;4.566;2023-08-20T00:02:04;9.35;;;3.45;;
10387;SDS011;5240;51.128;4.566;2023-08-20T00:04:35;9.18;;;3.30;;
10387;SDS011;5240;51.128;4.566;2023-08-20T00:07:04;12.73;;;3.60;;
10387;SDS011;5240;51.128;4.566;2023-08-20T00:09:32;10.70;;;3.20;;
10387;SDS011;5240;51.128;4.566;2023-08-20T00:11:59;10.48;;;3.45;;
10387;SDS011;5240;51.128;4.566;2023-08-20T00:17:19;11.35;;;3.50;;
10387;SDS011;5240;51.128;4.566;2023-08-20T00:19:47;8.27;;;3.30;;
10387;SDS011;5240;51.128;4.566;2023-08-20T00:22:16;6.82;;;3.05;;
10387;SDS011;5240;51.128;4.566;2023-08-20T00:24:44;11.52;;;3.95;;
10387;SDS011;5240;51.128;4.566;2023-08-20T00:27:11;10.65;;;3.80;;
10387;SDS011;5240;51.128;4.566;2023-08-20T00:29:38;7.82;;;3.20;;
10387;SDS011;5240;51.128;4.566;2023-08-20T00:32:05;9.70;;;3.40;;
10387;SDS011;5240;51.128;4.566;2023-08-20T00:34:33;12.18;;;3.58;;
10387;SDS011;5240;51.128;4.566;2023-08-20T00:37:00;6.35;;;3.25;;
10387;SDS011;5240;51.128;4.566;2023-08-20T00:39:29;13.65;;;3.20;;
10387;SDS011;5240;51.128;4.566;2023-08-20T00:41:55;10.90;;;3.20;;
10387;SDS011;5240;51.128;4.566;2023-08-20T00:44:23;7.50;;;3.45;;
10387;SDS011;5240;51.128;4.566;2023-08-20T00:46:50;8.48;;;3.40;;
10387;SDS011;5240;51.128;4.566;2023-08-20T00:49:18;11.82;;;3.42;;
10387;SDS011;5240;51.128;4.566;2023-08-20T00:51:45;9.18;;;3.45;;
10387;SDS011;5240;51.128;4.566;2023-08-20T00:54:12;9.48;;;3.38;;
10387;SDS011;5240;51.128;4.566;2023-08-20T00:56:41;7.75;;;3.15;;
10387;SDS011;5240;51.128;4.566;2023-08-20T00:59:08;11.15;;;3.60;;
10387;SDS011;5240;51.128;4.566;2023-08-20T01:01:36;7.32;;;3.15;;
10387;SDS011;5240;51.128;4.566;2023-08-20T01:04:03;10.10;;;3.70;;
10387;SDS011;5240;51.128;4.566;2023-08-20T01:06:32;9.55;;;3.28;;
10387;SDS011;5240;51.128;4.566;2023-08-20T01:09:12;8.93;;;3.22;;
10387;SDS011;5240;51.128;4.566;2023-08-20T01:11:49;12.23;;;3.47;;
10387;SDS011;5240;51.128;4.566;2023-08-20T01:14:22;12.38;;;3.65;;
10387;SDS011;5240;51.128;4.566;2023-08-20T01:16:49;8.95;;;3.03;;
10387;SDS011;5240;51.128;4.566;2023-08-20T01:19:17;10.30;;;3.80;;
10387;SDS011;5240;51.128;4.566;2023-08-20T01:21:47;9.45;;;3.55;;
10387;SDS011;5240;51.128;4.566;2023-08-20T01:24:24;11.30;;;3.78;;
10387;SDS011;5240;51.128;4.566;2023-08-20T01:27:10;8.45;;;3.55;;
10387;SDS011;5240;51.128;4.566;2023-08-20T01:29:54;6.30;;;3.33;;
10387;SDS011;5240;51.128;4.566;2023-08-20T01:32:22;11.88;;;3.50;;
10387;SDS011;5240;51.128;4.566;2023-08-20T01:34:50;10.52;;;3.67;;
10387;SDS011;5240;51.128;4.566;2023-08-20T01:37:19;8.45;;;3.33;;
10387;SDS011;5240;51.128;4.566;2023-08-20T01:39:48;12.52;;;3.90;;
10387;SDS011;5240;51.128;4.566;2023-08-20T01:42:15;8.50;;;3.40;;
10387;SDS011;5240;51.128;4.566;2023-08-20T01:44:42;6.63;;;3.10;;
10387;SDS011;5240;51.128;4.566;2023-08-20T01:47:10;10.25;;;3.40;;
10387;SDS011;5240;51.128;4.566;2023-08-20T01:49:37;9.70;;;3.40;;
10387;SDS011;5240;51.128;4.566;2023-08-20T01:52:04;11.70;;;3.92;;
10387;SDS011;5240;51.128;4.566;2023-08-20T01:54:31;9.93;;;3.22;;
10387;SDS011;5240;51.128;4.566;2023-08-20T01:56:58;6.70;;;3.17;;
10387;SDS011;5240;51.128;4.566;2023-08-20T01:59:25;8.00;;;3.22;;
10387;SDS011;5240;51.128;4.566;2023-08-20T02:01:52;8.07;;;3.60;;
10387;SDS011;5240;51.128;4.566;2023-08-20T02:04:21;8.43;;;3.50;;
10387;SDS011;5240;51.128;4.566;2023-08-20T02:06:48;10.40;;;3.90;;
10387;SDS011;5240;51.128;4.566;2023-08-20T02:09:15;10.23;;;4.03;;
10387;SDS011;5240;51.128;4.566;2023-08-20T02:11:44;8.38;;;3.67;;
10387;SDS011;5240;51.128;4.566;2023-08-20T02:14:11;11.93;;;4.25;;
10387;SDS011;5240;51.128;4.566;2023-08-20T02:16:38;7.68;;;4.05;;
10387;SDS011;5240;51.128;4.566;2023-08-20T02:19:05;10.25;;;4.05;;
10387;SDS011;5240;51.128;4.566;2023-08-20T02:21:34;12.98;;;4.70;;
10387;SDS011;5240;51.128;4.566;2023-08-20T02:24:01;8.10;;;4.05;;
10387;SDS011;5240;51.128;4.566;2023-08-20T02:26:28;10.20;;;4.03;;
10387;SDS011;5240;51.128;4.566;2023-08-20T02:28:55;10.68;;;4.28;;
10387;SDS011;5240;51.128;4.566;2023-08-20T02:31:22;13.40;;;4.13;;
10387;SDS011;5240;51.128;4.566;2023-08-20T02:33:49;12.13;;;4.22;;
10387;SDS011;5240;51.128;4.566;2023-08-20T02:36:16;10.75;;;4.55;;
10387;SDS011;5240;51.128;4.566;2023-08-20T02:38:45;14.88;;;4.20;;
10387;SDS011;5240;51.128;4.566;2023-08-20T02:41:12;10.65;;;3.83;;
10387;SDS011;5240;51.128;4.566;2023-08-20T02:43:39;12.52;;;4.63;;
10387;SDS011;5240;51.128;4.566;2023-08-20T02:46:06;11.68;;;4.15;;
10387;SDS011;5240;51.128;4.566;2023-08-20T02:48:33;10.77;;;4.68;;
10387;SDS011;5240;51.128;4.566;2023-08-20T02:51:00;11.75;;;4.25;;
10387;SDS011;5240;51.128;4.566;2023-08-20T02:53:27;9.68;;;4.22;;
10387;SDS011;5240;51.128;4.566;2023-08-20T02:55:56;8.70;;;3.95;;
10387;SDS011;5240;51.128;4.566;2023-08-20T02:58:23;12.15;;;4.30;;
10387;SDS011;5240;51.128;4.566;2023-08-20T03:00:50;13.75;;;3.90;;
10387;SDS011;5240;51.128;4.566;2023-08-20T03:03:18;8.73;;;4.13;;
10387;SDS011;5240;51.128;4.566;2023-08-20T03:05:45;10.63;;;3.80;;
10387;SDS011;5240;51.128;4.566;2023-08-20T03:08:12;11.38;;;4.15;;
10387;SDS011;5240;51.128;4.566;2023-08-20T03:10:39;10.38;;;3.42;;
10387;SDS011;5240;51.128;4.566;2023-08-20T03:13:07;8.50;;;3.95;;
10387;SDS011;5240;51.128;4.566;2023-08-20T03:15:34;10.05;;;4.10;;
10387;SDS011;5240;51.128;4.566;2023-08-20T03:18:01;6.10;;;3.67;;
10387;SDS011;5240;51.128;4.566;2023-08-20T03:20:28;12.15;;;3.95;;
10387;SDS011;5240;51.128;4.566;2023-08-20T03:22:57;12.20;;;4.18;;
10387;SDS011;5240;51.128;4.566;2023-08-20T03:25:24;12.10;;;4.45;;
10387;SDS011;5240;51.128;4.566;2023-08-20T03:27:51;14.02;;;3.95;;
10387;SDS011;5240;51.128;4.566;2023-08-20T03:30:19;9.07;;;4.10;;
10387;SDS011;5240;51.128;4.566;2023-08-20T03:32:47;10.57;;;4.20;;
10387;SDS011;5240;51.128;4.566;2023-08-20T03:35:13;14.18;;;4.80;;
10387;SDS011;5240;51.128;4.566;2023-08-20T03:37:41;9.88;;;3.75;;
10387;SDS011;5240;51.128;4.566;2023-08-20T03:40:08;8.50;;;4.10;;
10387;SDS011;5240;51.128;4.566;2023-08-20T03:42:35;10.05;;;3.83;;
10387;SDS011;5240;51.128;4.566;2023-08-20T03:45:02;10.13;;;4.05;;
10387;SDS011;5240;51.128;4.566;2023-08-20T03:47:31;8.88;;;4.38;;
10387;SDS011;5240;51.128;4.566;2023-08-20T03:49:58;7.00;;;3.80;;
10387;SDS011;5240;51.128;4.566;2023-08-20T03:52:25;8.57;;;4.20;;
10387;SDS011;5240;51.128;4.566;2023-08-20T03:54:52;14.23;;;3.92;;
10387;SDS011;5240;51.128;4.566;2023-08-20T03:57:19;9.05;;;3.92;;
10387;SDS011;5240;51.128;4.566;2023-08-20T03:59:45;7.45;;;3.72;;
10387;SDS011;5240;51.128;4.566;2023-08-20T04:02:12;11.48;;;4.40;;
10387;SDS011;5240;51.128;4.566;2023-08-20T04:04:41;7.38;;;3.70;;
10387;SDS011;5240;51.128;4.566;2023-08-20T04:07:08;10.45;;;4.22;;
10387;SDS011;5240;51.128;4.566;2023-08-20T04:09:34;10.77;;;4.60;;
10387;SDS011;5240;51.128;4.566;2023-08-20T04:12:01;12.80;;;4.50;;
10387;SDS011;5240;51.128;4.566;2023-08-20T04:14:29;10.07;;;4.30;;
10387;SDS011;5240;51.128;4.566;2023-08-20T04:16:56;10.07;;;4.18;;
10387;SDS011;5240;51.128;4.566;2023-08-20T04:19:23;13.65;;;4.43;;
10387;SDS011;5240;51.128;4.566;2023-08-20T04:21:51;10.55;;;4.40;;
10387;SDS011;5240;51.128;4.566;2023-08-20T04:24:18;9.55;;;4.05;;
10387;SDS011;5240;51.128;4.566;2023-08-20T04:26:45;8.95;;;4.30;;
10387;SDS011;5240;51.128;4.566;2023-08-20T04:29:12;8.95;;;3.97;;
10387;SDS011;5240;51.128;4.566;2023-08-20T04:31:39;9.27;;;4.22;;
10387;SDS011;5240;51.128;4.566;2023-08-20T04:34:06;7.97;;;3.90;;
10387;SDS011;5240;51.128;4.566;2023-08-20T04:36:33;10.98;;;3.97;;
10387;SDS011;5240;51.128;4.566;2023-08-20T04:39:01;9.80;;;4.03;;
10387;SDS011;5240;51.128;4.566;2023-08-20T04:41:29;7.60;;;4.30;;
10387;SDS011;5240;51.128;4.566;2023-08-20T04:43:56;9.05;;;4.40;;
10387;SDS011;5240;51.128;4.566;2023-08-20T04:46:23;10.82;;;4.03;;
10387;SDS011;5240;51.128;4.566;2023-08-20T04:48:50;9.80;;;4.18;;
10387;SDS011;5240;51.128;4.566;2023-08-20T04:51:17;10.40;;;4.72;;
10387;SDS011;5240;51.128;4.566;2023-08-20T04:53:44;9.60;;;4.53;;
10387;SDS011;5240;51.128;4.566;2023-08-20T04:56:13;11.90;;;5.07;;
10387;SDS011;5240;51.128;4.566;2023-08-20T04:58:40;9.18;;;4.57;;
10387;SDS011;5240;51.128;4.566;2023-08-20T05:01:07;12.43;;;4.13;;
10387;SDS011;5240;51.128;4.566;2023-08-20T05:03:34;6.55;;;4.05;;
10387;SDS011;5240;51.128;4.566;2023-08-20T05:06:01;8.90;;;4.65;;
10387;SDS011;5240;51.128;4.566;2023-08-20T05:08:29;12.07;;;4.63;;
10387;SDS011;5240;51.128;4.566;2023-08-20T05:10:56;10.88;;;4.50;;
10387;SDS011;5240;51.128;4.566;2023-08-20T05:13:24;7.47;;;4.15;;
10387;SDS011;5240;51.128;4.566;2023-08-20T05:15:51;8.45;;;4.65;;
10387;SDS011;5240;51.128;4.566;2023-08-20T05:18:18;10.32;;;5.03;;
10387;SDS011;5240;51.128;4.566;2023-08-20T05:20:45;8.70;;;4.88;;
10387;SDS011;5240;51.128;4.566;2023-08-20T05:23:12;13.65;;;5.05;;
10387;SDS011;5240;51.128;4.566;2023-08-20T05:25:39;7.70;;;4.45;;
10387;SDS011;5240;51.128;4.566;2023-08-20T05:28:06;10.98;;;4.60;;
10387;SDS011;5240;51.128;4.566;2023-08-20T05:30:34;13.38;;;4.78;;
10387;SDS011;5240;51.128;4.566;2023-08-20T05:33:01;11.50;;;4.40;;
10387;SDS011;5240;51.128;4.566;2023-08-20T05:35:29;10.90;;;4.85;;
10387;SDS011;5240;51.128;4.566;2023-08-20T05:37:55;10.35;;;4.47;;
10387;SDS011;5240;51.128;4.566;2023-08-20T05:40:22;8.52;;;4.80;;
10387;SDS011;5240;51.128;4.566;2023-08-20T05:42:49;10.82;;;5.25;;
10387;SDS011;5240;51.128;4.566;2023-08-20T05:45:16;15.55;;;5.00;;
10387;SDS011;5240;51.128;4.566;2023-08-20T05:47:45;9.10;;;4.47;;
10387;SDS011;5240;51.128;4.566;2023-08-20T05:50:11;10.57;;;4.30;;
10387;SDS011;5240;51.128;4.566;2023-08-20T05:52:38;7.10;;;4.10;;
10387;SDS011;5240;51.128;4.566;2023-08-20T05:55:05;9.85;;;4.43;;
10387;SDS011;5240;51.128;4.566;2023-08-20T05:57:33;12.07;;;4.65;;
10387;SDS011;5240;51.128;4.566;2023-08-20T06:00:02;11.43;;;4.60;;
10387;SDS011;5240;51.128;4.566;2023-08-20T06:02:29;12.18;;;4.10;;
10387;SDS011;5240;51.128;4.566;2023-08-20T06:04:58;11.75;;;4.60;;
10387;SDS011;5240;51.128;4.566;2023-08-20T06:07:25;10.32;;;4.43;;
10387;SDS011;5240;51.128;4.566;2023-08-20T06:09:52;11.80;;;4.88;;
10387;SDS011;5240;51.128;4.566;2023-08-20T06:12:20;11.00;;;5.57;;
10387;SDS011;5240;51.128;4.566;2023-08-20T06:14:46;13.95;;;4.93;;
10387;SDS011;5240;51.128;4.566;2023-08-20T06:17:14;10.52;;;4.63;;
10387;SDS011;5240;51.128;4.566;2023-08-20T06:19:41;11.52;;;5.25;;
10387;SDS011;5240;51.128;4.566;2023-08-20T06:22:09;13.88;;;6.00;;
10387;SDS011;5240;51.128;4.566;2023-08-20T06:24:36;9.55;;;4.97;;
10387;SDS011;5240;51.128;4.566;2023-08-20T06:27:04;10.20;;;5.18;;
10387;SDS011;5240;51.128;4.566;2023-08-20T06:29:31;15.13;;;5.05;;
10387;SDS011;5240;51.128;4.566;2023-08-20T06:31:57;13.00;;;5.50;;
10387;SDS011;5240;51.128;4.566;2023-08-20T06:34:24;11.68;;;5.18;;
10387;SDS011;5240;51.128;4.566;2023-08-20T06:36:51;11.15;;;5.45;;
10387;SDS011;5240;51.128;4.566;2023-08-20T06:39:20;10.50;;;4.90;;
10387;SDS011;5240;51.128;4.566;2023-08-20T06:41:47;9.15;;;4.45;;
10387;SDS011;5240;51.128;4.566;2023-08-20T06:44:14;14.90;;;4.45;;
10387;SDS011;5240;51.128;4.566;2023-08-20T06:46:41;13.45;;;4.60;;
10387;SDS011;5240;51.128;4.566;2023-08-20T06:49:07;13.80;;;4.32;;
10387;SDS011;5240;51.128;4.566;2023-08-20T06:51:34;10.07;;;4.30;;
10387;SDS011;5240;51.128;4.566;2023-08-20T06:54:01;11.45;;;4.18;;
10387;SDS011;5240;51.128;4.566;2023-08-20T06:56:32;10.63;;;4.47;;
10387;SDS011;5240;51.128;4.566;2023-08-20T06:58:59;10.73;;;3.95;;
10387;SDS011;5240;51.128;4.566;2023-08-20T07:01:26;9.05;;;3.63;;
10387;SDS011;5240;51.128;4.566;2023-08-20T07:03:56;8.60;;;3.65;;
10387;SDS011;5240;51.128;4.566;2023-08-20T07:06:23;12.52;;;4.25;;
10387;SDS011;5240;51.128;4.566;2023-08-20T07:08:50;7.28;;;3.47;;
10387;SDS011;5240;51.128;4.566;2023-08-20T07:11:17;10.57;;;3.72;;
10387;SDS011;5240;51.128;4.566;2023-08-20T07:13:45;9.50;;;3.38;;
10387;SDS011;5240;51.128;4.566;2023-08-20T07:16:12;9.18;;;3.15;;
10387;SDS011;5240;51.128;4.566;2023-08-20T07:18:39;8.73;;;3.13;;
10387;SDS011;5240;51.128;4.566;2023-08-20T07:21:06;8.63;;;3.10;;
10387;SDS011;5240;51.128;4.566;2023-08-20T07:23:34;12.15;;;3.33;;
10387;SDS011;5240;51.128;4.566;2023-08-20T07:26:04;10.98;;;3.35;;
10387;SDS011;5240;51.128;4.566;2023-08-20T07:28:33;12.68;;;3.30;;
10387;SDS011;5240;51.128;4.566;2023-08-20T07:31:19;9.38;;;2.83;;
10387;SDS011;5240;51.128;4.566;2023-08-20T07:33:46;12.15;;;3.25;;
10387;SDS011;5240;51.128;4.566;2023-08-20T07:36:13;8.68;;;2.80;;
10387;SDS011;5240;51.128;4.566;2023-08-20T07:38:41;9.75;;;2.70;;
10387;SDS011;5240;51.128;4.566;2023-08-20T07:41:09;9.40;;;3.00;;
10387;SDS011;5240;51.128;4.566;2023-08-20T07:43:39;8.05;;;3.00;;
10387;SDS011;5240;51.128;4.566;2023-08-20T07:46:07;8.00;;;3.00;;
10387;SDS011;5240;51.128;4.566;2023-08-20T07:48:35;7.80;;;2.85;;
10387;SDS011;5240;51.128;4.566;2023-08-20T07:51:02;6.75;;;2.67;;
10387;SDS011;5240;51.128;4.566;2023-08-20T07:53:30;7.53;;;3.22;;
10387;SDS011;5240;51.128;4.566;2023-08-20T07:55:58;8.65;;;2.55;;
10387;SDS011;5240;51.128;4.566;2023-08-20T07:58:26;9.40;;;3.03;;
10387;SDS011;5240;51.128;4.566;2023-08-20T08:00:53;7.97;;;2.83;;
10387;SDS011;5240;51.128;4.566;2023-08-20T08:03:20;9.07;;;3.17;;
10387;SDS011;5240;51.128;4.566;2023-08-20T08:05:49;7.55;;;2.45;;
10387;SDS011;5240;51.128;4.566;2023-08-20T08:08:16;7.28;;;3.13;;
10387;SDS011;5240;51.128;4.566;2023-08-20T08:10:43;8.90;;;2.90;;
10387;SDS011;5240;51.128;4.566;2023-08-20T08:13:10;5.38;;;2.58;;
10387;SDS011;5240;51.128;4.566;2023-08-20T08:15:37;7.35;;;2.38;;
10387;SDS011;5240;51.128;4.566;2023-08-20T08:18:04;7.30;;;2.58;;
10387;SDS011;5240;51.128;4.566;2023-08-20T08:20:32;6.57;;;2.40;;
10387;SDS011;5240;51.128;4.566;2023-08-20T08:23:02;6.35;;;2.50;;
10387;SDS011;5240;51.128;4.566;2023-08-20T08:25:29;6.53;;;2.45;;
10387;SDS011;5240;51.128;4.566;2023-08-20T08:27:56;5.65;;;2.35;;
10387;SDS011;5240;51.128;4.566;2023-08-20T08:30:23;6.72;;;2.53;;
10387;SDS011;5240;51.128;4.566;2023-08-20T08:32:49;8.25;;;2.08;;
10387;SDS011;5240;51.128;4.566;2023-08-20T08:35:17;5.93;;;2.25;;
10387;SDS011;5240;51.128;4.566;2023-08-20T08:37:43;6.95;;;2.00;;
10387;SDS011;5240;51.128;4.566;2023-08-20T08:40:12;6.90;;;2.00;;
10387;SDS011;5240;51.128;4.566;2023-08-20T08:42:40;4.60;;;2.03;;
10387;SDS011;5240;51.128;4.566;2023-08-20T08:45:08;5.72;;;2.10;;
10387;SDS011;5240;51.128;4.566;2023-08-20T08:47:36;4.05;;;2.00;;
10387;SDS011;5240;51.128;4.566;2023-08-20T08:50:06;5.07;;;1.77;;
10387;SDS011;5240;51.128;4.566;2023-08-20T08:52:35;4.43;;;1.90;;
10387;SDS011;5240;51.128;4.566;2023-08-20T08:55:04;6.80;;;2.08;;
10387;SDS011;5240;51.128;4.566;2023-08-20T08:57:34;5.07;;;2.20;;
10387;SDS011;5240;51.128;4.566;2023-08-20T09:00:02;5.15;;;2.05;;
10387;SDS011;5240;51.128;4.566;2023-08-20T09:02:29;3.20;;;1.60;;
10387;SDS011;5240;51.128;4.566;2023-08-20T09:04:56;7.45;;;2.15;;
10387;SDS011;5240;51.128;4.566;2023-08-20T09:07:24;5.05;;;1.90;;
10387;SDS011;5240;51.128;4.566;2023-08-20T09:09:51;3.13;;;1.70;;
10387;SDS011;5240;51.128;4.566;2023-08-20T09:12:25;4.40;;;1.95;;
10387;SDS011;5240;51.128;4.566;2023-08-20T09:14:54;4.03;;;1.60;;
10387;SDS011;5240;51.128;4.566;2023-08-20T09:17:25;1.92;;;1.48;;
10387;SDS011;5240;51.128;4.566;2023-08-20T09:19:54;3.80;;;1.70;;
10387;SDS011;5240;51.128;4.566;2023-08-20T09:22:22;2.78;;;1.45;;
10387;SDS011;5240;51.128;4.566;2023-08-20T09:24:53;3.67;;;1.70;;
10387;SDS011;5240;51.128;4.566;2023-08-20T09:27:21;3.53;;;1.65;;
10387;SDS011;5240;51.128;4.566;2023-08-20T09:29:49;2.10;;;1.63;;
10387;SDS011;5240;51.128;4.566;2023-08-20T09:32:18;3.75;;;1.63;;
10387;SDS011;5240;51.128;4.566;2023-08-20T09:34:46;5.28;;;1.65;;
10387;SDS011;5240;51.128;4.566;2023-08-20T09:37:15;3.10;;;1.85;;
10387;SDS011;5240;51.128;4.566;2023-08-20T09:39:43;4.25;;;1.70;;
10387;SDS011;5240;51.128;4.566;2023-08-20T09:42:11;3.28;;;1.60;;
10387;SDS011;5240;51.128;4.566;2023-08-20T09:44:39;2.42;;;1.58;;
10387;SDS011;5240;51.128;4.566;2023-08-20T09:47:08;1.90;;;1.40;;
10387;SDS011;5240;51.128;4.566;2023-08-20T09:49:38;3.08;;;1.50;;
10387;SDS011;5240;51.128;4.566;2023-08-20T09:52:06;2.45;;;1.48;;
10387;SDS011;5240;51.128;4.566;2023-08-20T09:54:50;3.25;;;1.20;;
10387;SDS011;5240;51.128;4.566;2023-08-20T09:57:32;2.63;;;1.45;;
10387;SDS011;5240;51.128;4.566;2023-08-20T10:00:04;4.20;;;1.60;;
10387;SDS011;5240;51.128;4.566;2023-08-20T10:02:35;1.85;;;1.42;;
10387;SDS011;5240;51.128;4.566;2023-08-20T10:05:04;2.20;;;1.40;;
10387;SDS011;5240;51.128;4.566;2023-08-20T10:07:35;1.80;;;1.35;;
10387;SDS011;5240;51.128;4.566;2023-08-20T10:10:03;2.58;;;1.40;;
10387;SDS011;5240;51.128;4.566;2023-08-20T10:12:32;1.42;;;1.33;;
10387;SDS011;5240;51.128;4.566;2023-08-20T10:15:00;3.20;;;1.60;;
10387;SDS011;5240;51.128;4.566;2023-08-20T10:17:28;2.03;;;1.20;;
10387;SDS011;5240;51.128;4.566;2023-08-20T10:19:57;2.00;;;1.10;;
10387;SDS011;5240;51.128;4.566;2023-08-20T10:22:33;2.17;;;1.23;;
10387;SDS011;5240;51.128;4.566;2023-08-20T10:25:03;1.77;;;1.30;;
10387;SDS011;5240;51.128;4.566;2023-08-20T10:27:33;1.83;;;1.20;;
10387;SDS011;5240;51.128;4.566;2023-08-20T10:30:01;1.60;;;1.10;;
10387;SDS011;5240;51.128;4.566;2023-08-20T10:32:45;1.20;;;1.10;;
10387;SDS011;5240;51.128;4.566;2023-08-20T10:35:14;3.70;;;1.60;;
10387;SDS011;5240;51.128;4.566;2023-08-20T10:38:03;3.33;;;1.45;;
10387;SDS011;5240;51.128;4.566;2023-08-20T10:40:52;2.75;;;1.67;;
10387;SDS011;5240;51.128;4.566;2023-08-20T10:43:27;3.38;;;1.50;;
10387;SDS011;5240;51.128;4.566;2023-08-20T10:48:50;3.03;;;1.67;;
10387;SDS011;5240;51.128;4.566;2023-08-20T10:51:19;3.08;;;1.40;;
10387;SDS011;5240;51.128;4.566;2023-08-20T10:54:05;3.10;;;1.70;;
10387;SDS011;5240;51.128;4.566;2023-08-20T10:56:37;2.15;;;1.63;;
10387;SDS011;5240;51.128;4.566;2023-08-20T10:59:06;7.75;;;1.77;;
10387;SDS011;5240;51.128;4.566;2023-08-20T11:01:34;2.88;;;1.70;;
10387;SDS011;5240;51.128;4.566;2023-08-20T11:04:02;8.25;;;1.88;;
10387;SDS011;5240;51.128;4.566;2023-08-20T11:06:32;2.45;;;1.30;;
10387;SDS011;5240;51.128;4.566;2023-08-20T11:09:00;4.70;;;1.80;;
10387;SDS011;5240;51.128;4.566;2023-08-20T11:11:32;3.60;;;1.73;;
10387;SDS011;5240;51.128;4.566;2023-08-20T11:14:03;3.72;;;1.55;;
10387;SDS011;5240;51.128;4.566;2023-08-20T11:16:31;4.70;;;1.58;;
10387;SDS011;5240;51.128;4.566;2023-08-20T11:18:58;2.83;;;1.65;;
10387;SDS011;5240;51.128;4.566;2023-08-20T11:21:25;3.78;;;1.70;;
10387;SDS011;5240;51.128;4.566;2023-08-20T11:23:54;4.10;;;1.50;;
10387;SDS011;5240;51.128;4.566;2023-08-20T11:26:21;3.20;;;1.80;;
10387;SDS011;5240;51.128;4.566;2023-08-20T11:28:49;3.60;;;2.00;;
10387;SDS011;5240;51.128;4.566;2023-08-20T11:31:16;3.05;;;1.60;;
10387;SDS011;5240;51.128;4.566;2023-08-20T11:33:43;2.05;;;1.48;;
10387;SDS011;5240;51.128;4.566;2023-08-20T11:36:11;4.30;;;1.85;;
10387;SDS011;5240;51.128;4.566;2023-08-20T11:38:38;6.05;;;1.80;;
10387;SDS011;5240;51.128;4.566;2023-08-20T11:41:05;2.67;;;1.58;;
10387;SDS011;5240;51.128;4.566;2023-08-20T11:43:32;3.85;;;1.70;;
10387;SDS011;5240;51.128;4.566;2023-08-20T11:46:00;3.03;;;1.70;;
10387;SDS011;5240;51.128;4.566;2023-08-20T11:48:27;3.60;;;2.08;;
10387;SDS011;5240;51.128;4.566;2023-08-20T11:50:56;2.20;;;1.77;;
10387;SDS011;5240;51.128;4.566;2023-08-20T11:53:25;3.85;;;1.65;;
10387;SDS011;5240;51.128;4.566;2023-08-20T11:55:55;4.35;;;2.13;;
10387;SDS011;5240;51.128;4.566;2023-08-20T11:58:22;3.42;;;1.90;;
10387;SDS011;5240;51.128;4.566;2023-08-20T12:00:49;3.75;;;1.67;;
10387;SDS011;5240;51.128;4.566;2023-08-20T12:03:19;3.15;;;1.85;;
10387;SDS011;5240;51.128;4.566;2023-08-20T12:05:47;2.97;;;1.77;;
10387;SDS011;5240;51.128;4.566;2023-08-20T12:08:15;6.88;;;2.20;;
10387;SDS011;5240;51.128;4.566;2023-08-20T12:10:43;4.18;;;1.83;;
10387;SDS011;5240;51.128;4.566;2023-08-20T12:13:10;3.42;;;1.88;;
10387;SDS011;5240;51.128;4.566;2023-08-20T12:15:37;4.15;;;1.85;;
10387;SDS011;5240;51.128;4.566;2023-08-20T12:18:04;4.47;;;1.90;;
10387;SDS011;5240;51.128;4.566;2023-08-20T12:20:35;4.88;;;1.77;;
10387;SDS011;5240;51.128;4.566;2023-08-20T12:23:03;4.07;;;1.83;;
10387;SDS011;5240;51.128;4.566;2023-08-20T12:25:32;5.20;;;1.73;;
10387;SDS011;5240;51.128;4.566;2023-08-20T12:28:00;3.92;;;1.65;;
10387;SDS011;5240;51.128;4.566;2023-08-20T12:30:28;3.13;;;1.60;;
10387;SDS011;5240;51.128;4.566;2023-08-20T12:32:55;3.15;;;1.80;;
10387;SDS011;5240;51.128;4.566;2023-08-20T12:35:22;2.75;;;1.73;;
10387;SDS011;5240;51.128;4.566;2023-08-20T12:37:50;4.47;;;1.80;;
10387;SDS011;5240;51.128;4.566;2023-08-20T12:40:17;2.88;;;1.75;;
10387;SDS011;5240;51.128;4.566;2023-08-20T12:42:44;2.63;;;1.55;;
10387;SDS011;5240;51.128;4.566;2023-08-20T12:45:11;5.22;;;1.90;;
10387;SDS011;5240;51.128;4.566;2023-08-20T12:47:38;3.35;;;1.88;;
10387;SDS011;5240;51.128;4.566;2023-08-20T12:50:06;3.95;;;1.90;;
10387;SDS011;5240;51.128;4.566;2023-08-20T12:52:33;3.17;;;1.70;;
10387;SDS011;5240;51.128;4.566;2023-08-20T12:55:02;3.17;;;1.73;;
10387;SDS011;5240;51.128;4.566;2023-08-20T12:57:29;4.95;;;1.63;;
10387;SDS011;5240;51.128;4.566;2023-08-20T12:59:56;2.47;;;1.55;;
10387;SDS011;5240;51.128;4.566;2023-08-20T13:02:24;7.18;;;2.10;;
10387;SDS011;5240;51.128;4.566;2023-08-20T13:04:51;2.55;;;1.65;;
10387;SDS011;5240;51.128;4.566;2023-08-20T13:07:19;3.40;;;1.40;;
10387;SDS011;5240;51.128;4.566;2023-08-20T13:09:47;5.80;;;1.60;;
10387;SDS011;5240;51.128;4.566;2023-08-20T13:12:15;4.38;;;2.33;;
10387;SDS011;5240;51.128;4.566;2023-08-20T13:14:48;2.50;;;1.65;;
10387;SDS011;5240;51.128;4.566;2023-08-20T13:17:16;4.75;;;1.60;;
10387;SDS011;5240;51.128;4.566;2023-08-20T13:19:43;4.18;;;1.63;;
10387;SDS011;5240;51.128;4.566;2023-08-20T13:22:10;6.00;;;1.67;;
10387;SDS011;5240;51.128;4.566;2023-08-20T13:24:37;3.63;;;1.67;;
10387;SDS011;5240;51.128;4.566;2023-08-20T13:27:04;3.10;;;1.67;;
10387;SDS011;5240;51.128;4.566;2023-08-20T13:29:32;1.90;;;1.58;;
10387;SDS011;5240;51.128;4.566;2023-08-20T13:31:59;3.15;;;1.67;;
10387;SDS011;5240;51.128;4.566;2023-08-20T13:34:27;3.10;;;1.60;;
10387;SDS011;5240;51.128;4.566;2023-08-20T13:36:54;3.92;;;1.60;;
10387;SDS011;5240;51.128;4.566;2023-08-20T13:39:21;2.85;;;1.50;;
10387;SDS011;5240;51.128;4.566;2023-08-20T13:41:49;3.75;;;1.50;;
10387;SDS011;5240;51.128;4.566;2023-08-20T13:44:16;3.13;;;1.50;;
10387;SDS011;5240;51.128;4.566;2023-08-20T13:46:44;3.45;;;1.63;;
10387;SDS011;5240;51.128;4.566;2023-08-20T13:49:11;2.97;;;1.58;;
10387;SDS011;5240;51.128;4.566;2023-08-20T13:51:38;2.10;;;1.55;;
10387;SDS011;5240;51.128;4.566;2023-08-20T13:54:05;3.50;;;1.67;;
10387;SDS011;5240;51.128;4.566;2023-08-20T13:56:32;5.30;;;1.88;;
10387;SDS011;5240;51.128;4.566;2023-08-20T13:58:59;4.93;;;1.70;;
10387;SDS011;5240;51.128;4.566;2023-08-20T14:01:27;4.18;;;1.92;;
10387;SDS011;5240;51.128;4.566;2023-08-20T14:03:55;3.33;;;1.67;;
10387;SDS011;5240;51.128;4.566;2023-08-20T14:06:22;4.15;;;1.75;;
10387;SDS011;5240;51.128;4.566;2023-08-20T14:08:49;2.33;;;1.60;;
10387;SDS011;5240;51.128;4.566;2023-08-20T14:11:16;2.08;;;1.40;;
10387;SDS011;5240;51.128;4.566;2023-08-20T14:13:43;4.50;;;1.70;;
10387;SDS011;5240;51.128;4.566;2023-08-20T14:16:10;3.08;;;1.80;;
10387;SDS011;5240;51.128;4.566;2023-08-20T14:18:37;4.88;;;1.65;;
10387;SDS011;5240;51.128;4.566;2023-08-20T14:21:06;2.90;;;1.48;;
10387;SDS011;5240;51.128;4.566;2023-08-20T14:23:32;3.22;;;1.73;;
10387;SDS011;5240;51.128;4.566;2023-08-20T14:26:00;3.00;;;1.70;;
10387;SDS011;5240;51.128;4.566;2023-08-20T14:28:27;4.10;;;1.83;;
10387;SDS011;5240;51.128;4.566;2023-08-20T14:30:54;2.15;;;1.55;;
10387;SDS011;5240;51.128;4.566;2023-08-20T14:33:21;4.35;;;1.90;;
10387;SDS011;5240;51.128;4.566;2023-08-20T14:35:48;3.50;;;1.77;;
10387;SDS011;5240;51.128;4.566;2023-08-20T14:38:17;3.60;;;1.83;;
10387;SDS011;5240;51.128;4.566;2023-08-20T14:40:44;4.88;;;2.55;;
10387;SDS011;5240;51.128;4.566;2023-08-20T14:43:10;5.22;;;1.77;;
10387;SDS011;5240;51.128;4.566;2023-08-20T14:45:37;4.85;;;2.03;;
10387;SDS011;5240;51.128;4.566;2023-08-20T14:48:04;4.80;;;1.83;;
10387;SDS011;5240;51.128;4.566;2023-08-20T14:50:31;2.20;;;1.55;;
10387;SDS011;5240;51.128;4.566;2023-08-20T14:52:58;3.38;;;1.70;;
10387;SDS011;5240;51.128;4.566;2023-08-20T14:55:29;3.63;;;1.70;;
10387;SDS011;5240;51.128;4.566;2023-08-20T14:57:55;2.03;;;1.63;;
10387;SDS011;5240;51.128;4.566;2023-08-20T15:00:22;3.05;;;1.70;;
10387;SDS011;5240;51.128;4.566;2023-08-20T15:02:49;2.67;;;1.70;;
10387;SDS011;5240;51.128;4.566;2023-08-20T15:05:16;3.42;;;1.60;;
10387;SDS011;5240;51.128;4.566;2023-08-20T15:07:44;3.10;;;1.88;;
10387;SDS011;5240;51.128;4.566;2023-08-20T15:10:11;3.03;;;1.60;;